Time;durP1;ratioP1;P1;durP2;ratioP2;P2;SDS_P1;SDS_P2;PMS_P1;PMS_P2;Temp;Humidity;BMP_temperature;BMP_pressure;BME280_temperature;BME280_humidity;BME280_pressure;Samples;Min_cycle;Max_cycle;Signal;HPM_P1;HPM_P2
2023/12/30 00:08:34;;;;;;;1.52;0.80;;;;;;;16.55;59.94;100263.47;20866672;28;20056;-64
2023/12/30 00:18:36;;;;;;;1.77;0.73;;;;;;;16.53;59.77;100260.97;20819131;28;20548;-64
2023/12/30 00:28:38;;;;;;;0.85;0.50;;;;;;;16.52;59.64;100259.25;20827438;28;20045;-64
2023/12/30 00:38:40;;;;;;;2.17;0.52;;;;;;;16.48;59.48;100268.59;20803345;28;20164;-64
2023/12/30 00:48:42;;;;;;;2.17;0.80;;;;;;;16.44;59.49;100276.09;20812351;28;20044;-64
2023/12/30 00:58:51;;;;;;;1.83;0.45;;;;;;;16.41;59.25;100286.28;20823352;28;20574;-64
2023/12/30 01:08:53;;;;;;;1.85;0.60;;;;;;;16.37;59.11;100288.38;20843515;28;20072;-64
2023/12/30 01:18:54;;;;;;;1.38;0.45;;;;;;;16.34;58.83;100294.88;20842557;28;20055;-64
2023/12/30 01:28:57;;;;;;;1.13;0.60;;;;;;;16.31;58.86;100311.28;20828227;28;20073;-64
2023/12/30 01:38:59;;;;;;;2.13;0.68;;;;;;;16.28;58.98;100316.09;20826143;28;20049;-64
2023/12/30 01:49:02;;;;;;;1.40;0.60;;;;;;;16.24;58.51;100326.25;20838073;28;20466;-64
2023/12/30 01:59:05;;;;;;;2.33;0.50;;;;;;;16.13;58.33;100311.16;20828399;28;20164;-64
2023/12/30 02:09:07;;;;;;;1.27;0.70;;;;;;;16.22;58.37;100337.16;20837928;28;20437;-64
2023/12/30 02:19:11;;;;;;;1.92;0.60;;;;;;;16.23;58.05;100351.44;20809795;28;20049;-64
2023/12/30 02:29:13;;;;;;;2.90;0.60;;;;;;;16.19;57.90;100352.69;20828006;28;20049;-64
2023/12/30 02:39:15;;;;;;;1.42;0.70;;;;;;;16.16;57.98;100361.91;20830204;28;20489;-64
2023/12/30 02:49:16;;;;;;;2.08;0.60;;;;;;;16.16;57.71;100366.41;20834091;28;20068;-64
2023/12/30 02:59:18;;;;;;;2.20;0.70;;;;;;;16.15;57.84;100370.06;20841257;28;20049;-64
2023/12/30 03:09:20;;;;;;;1.10;0.50;;;;;;;16.15;57.40;100384.38;20854773;28;20470;-64
2023/12/30 03:19:22;;;;;;;1.85;0.55;;;;;;;16.13;57.47;100390.84;20828312;28;20045;-64
2023/12/30 03:29:24;;;;;;;2.22;1.00;;;;;;;16.12;57.31;100399.88;20825254;28;20053;-64
2023/12/30 03:39:25;;;;;;;1.55;0.55;;;;;;;16.08;57.14;100410.91;20826064;28;20045;-64
2023/12/30 03:49:27;;;;;;;1.23;0.57;;;;;;;16.06;57.36;100415.56;20849208;28;20076;-64
2023/12/30 03:59:29;;;;;;;0.93;0.32;;;;;;;16.07;56.91;100422.63;20800731;28;20509;-64
2023/12/30 04:09:31;;;;;;;1.92;0.60;;;;;;;16.05;56.90;100424.59;20819368;28;20060;-65
2023/12/30 04:19:33;;;;;;;4.50;0.70;;;;;;;16.05;56.79;100419.22;20825488;28;20045;-65
2023/12/30 04:29:34;;;;;;;1.92;0.77;;;;;;;16.04;56.66;100422.91;20845842;28;20060;-66
2023/12/30 04:39:36;;;;;;;1.92;0.65;;;;;;;16.06;56.56;100433.50;20832398;28;20056;-64
2023/12/30 04:49:38;;;;;;;2.65;0.75;;;;;;;16.05;56.58;100443.41;20849595;28;20091;-64
2023/12/30 04:59:40;;;;;;;2.22;0.80;;;;;;;16.03;56.52;100450.75;20830715;28;20049;-64
2023/12/30 05:09:42;;;;;;;2.78;0.98;;;;;;;16.03;56.25;100458.81;20846893;28;20056;-64
2023/12/30 05:19:44;;;;;;;2.10;0.60;;;;;;;16.02;56.14;100472.34;20824649;28;20567;-64
2023/12/30 05:29:46;;;;;;;2.13;0.70;;;;;;;16.01;56.13;100487.63;20844882;28;20045;-64
2023/12/30 05:39:48;;;;;;;1.52;0.90;;;;;;;15.97;56.24;100496.94;20834315;28;20044;-64
2023/12/30 05:49:50;;;;;;;1.42;0.70;;;;;;;15.94;56.13;100511.47;20813536;28;20045;-64
2023/12/30 05:59:52;;;;;;;1.17;0.57;;;;;;;15.91;56.13;100505.53;20824120;28;20498;-64
2023/12/30 06:09:54;;;;;;;1.10;0.60;;;;;;;15.89;56.17;100526.25;20808745;28;20184;-64
2023/12/30 06:19:56;;;;;;;1.67;0.57;;;;;;;15.84;56.69;100533.81;20837500;28;20054;-64
2023/12/30 06:29:58;;;;;;;0.85;0.50;;;;;;;15.84;56.32;100539.19;20847877;28;20132;-64
2023/12/30 06:40:00;;;;;;;1.55;0.65;;;;;;;15.83;56.13;100542.84;20853769;28;20103;-64
2023/12/30 06:50:01;;;;;;;1.17;0.55;;;;;;;15.82;56.01;100547.38;20848892;28;20122;-64
2023/12/30 07:00:04;;;;;;;2.15;0.80;;;;;;;15.83;55.93;100553.59;20811289;28;20491;-64
2023/12/30 07:10:07;;;;;;;1.83;0.70;;;;;;;15.81;56.05;100562.63;20822252;28;20053;-65
2023/12/30 07:20:09;;;;;;;2.35;0.82;;;;;;;15.81;56.29;100577.91;20827348;28;20056;-64
2023/12/30 07:30:11;;;;;;;1.17;0.50;;;;;;;15.81;56.08;100588.63;20835444;28;20064;-65
2023/12/30 07:40:14;;;;;;;2.40;0.80;;;;;;;15.81;56.02;100613.63;20819437;28;20105;-65
2023/12/30 07:50:17;;;;;;;2.92;0.80;;;;;;;15.83;56.14;100626.06;20841632;28;20199;-64
2023/12/30 08:00:18;;;;;;;1.85;0.63;;;;;;;15.68;56.12;100622.84;20832988;28;20049;-64
2023/12/30 08:10:20;;;;;;;2.38;0.75;;;;;;;15.74;55.80;100650.03;20826391;28;20516;-65
2023/12/30 08:20:22;;;;;;;2.85;1.02;;;;;;;15.74;56.09;100674.19;20827281;28;20520;-65
2023/12/30 08:30:24;;;;;;;4.72;1.00;;;;;;;15.85;55.94;100693.91;20830132;28;20060;-65
2023/12/30 08:40:26;;;;;;;2.83;0.88;;;;;;;16.06;55.46;100724.38;20819527;28;20057;-67
2023/12/30 08:50:28;;;;;;;1.67;0.60;;;;;;;16.30;54.80;100734.00;20804940;28;20052;-64
2023/12/30 09:00:29;;;;;;;1.58;0.65;;;;;;;16.45;54.27;100747.16;20804438;28;20386;-65
2023/12/30 09:10:31;;;;;;;1.90;0.77;;;;;;;16.58;53.74;100758.53;20830343;28;20125;-64
2023/12/30 09:20:33;;;;;;;3.25;0.82;;;;;;;16.67;53.76;100752.38;20804581;28;20053;-65
2023/12/30 09:30:35;;;;;;;1.58;0.70;;;;;;;16.91;54.59;100758.44;20830733;28;20242;-65
2023/12/30 09:40:37;;;;;;;4.93;0.90;;;;;;;17.12;54.26;100771.91;20833284;28;20053;-64
2023/12/30 09:50:39;;;;;;;3.25;1.10;;;;;;;17.18;54.09;100771.34;20865508;28;20091;-64
2023/12/30 10:00:44;;;;;;;1.20;0.70;;;;;;;17.33;54.14;100782.59;20847113;28;20077;-66
2023/12/30 10:10:47;;;;;;;;;;;;;;;17.42;54.41;100789.03;20838811;28;20041;-67
2023/12/30 10:20:48;;;;;;;2.97;1.10;;;;;;;17.43;54.19;100793.41;20853657;28;19994;-66
2023/12/30 10:31:04;;;;;;;2.72;1.00;;;;;;;17.61;54.26;100788.25;20824980;28;20092;-66
2023/12/30 10:41:06;;;;;;;3.30;1.20;;;;;;;17.76;53.79;100779.75;20831059;28;20073;-66
2023/12/30 10:51:09;;;;;;;2.88;1.20;;;;;;;17.79;54.11;100772.28;20860807;28;20058;-66
2023/12/30 11:01:11;;;;;;;2.88;1.70;;;;;;;18.19;53.75;100804.69;20825410;28;20052;-70
2023/12/30 11:11:14;;;;;;;4.30;1.60;;;;;;;18.50;53.23;100804.53;20822013;28;20052;-69
2023/12/30 11:21:35;;;;;;;3.50;1.90;;;;;;;18.32;53.50;100789.09;20854863;28;20053;-69
2023/12/30 11:31:40;;;;;;;3.35;1.52;;;;;;;18.19;53.56;100780.44;20875525;28;20048;-69
2023/12/30 11:41:42;;;;;;;3.80;1.58;;;;;;;18.25;53.22;100769.09;20872582;28;20045;-69
2023/12/30 11:51:44;;;;;;;3.80;1.40;;;;;;;18.11;53.51;100779.28;20840686;28;20060;-69
2023/12/30 12:01:46;;;;;;;2.47;1.25;;;;;;;18.00;53.76;100757.00;20847685;28;20558;-69
2023/12/30 12:11:49;;;;;;;4.40;1.55;;;;;;;17.94;54.15;100750.31;20825544;28;20049;-69
2023/12/30 12:21:51;;;;;;;4.20;1.60;;;;;;;17.95;54.69;100742.09;20824536;28;20061;-67
2023/12/30 12:31:53;;;;;;;2.63;1.30;;;;;;;17.94;55.96;100744.94;20825949;28;20512;-69
2023/12/30 12:41:54;;;;;;;2.83;1.23;;;;;;;18.07;56.02;100745.53;20800063;28;20053;-67
2023/12/30 12:51:56;;;;;;;2.90;1.20;;;;;;;18.15;56.18;100735.91;20804339;28;20045;-66
2023/12/30 13:01:58;;;;;;;3.97;1.42;;;;;;;18.20;56.31;100722.84;20830346;28;20049;-67
2023/12/30 13:12:02;;;;;;;4.53;1.42;;;;;;;18.20;56.61;100707.53;20850898;28;20069;-65
2023/12/30 13:22:04;;;;;;;3.10;1.38;;;;;;;18.36;56.34;100716.88;20816115;28;20049;-65
2023/12/30 13:32:06;;;;;;;2.72;1.20;;;;;;;18.44;56.29;100713.44;20817762;28;20076;-69
2023/12/30 13:42:10;;;;;;;2.85;1.25;;;;;;;18.45;56.34;100701.69;20837745;28;20053;-69
2023/12/30 13:52:11;;;;;;;2.47;1.33;;;;;;;18.52;56.28;100700.09;20838209;28;20045;-68
2023/12/30 14:02:17;;;;;;;2.88;1.20;;;;;;;18.54;56.30;100690.03;20809478;28;20486;-67
2023/12/30 14:12:24;;;;;;;2.58;1.17;;;;;;;18.56;56.17;100685.34;20835477;28;20049;-69
2023/12/30 14:22:26;;;;;;;2.42;1.35;;;;;;;18.59;56.26;100684.19;20822280;28;20052;-69
2023/12/30 14:32:28;;;;;;;3.42;1.40;;;;;;;18.60;56.20;100680.50;20802031;28;20077;-69
2023/12/30 14:42:30;;;;;;;3.10;1.40;;;;;;;18.63;56.48;100670.28;20808520;28;20049;-69
2023/12/30 14:52:31;;;;;;;2.83;1.17;;;;;;;18.66;56.29;100653.81;20809081;28;20592;-69
2023/12/30 15:02:34;;;;;;;2.58;1.25;;;;;;;18.66;56.91;100652.94;20810977;28;20045;-69
2023/12/30 15:12:35;;;;;;;2.30;1.15;;;;;;;18.70;57.15;100657.06;20800838;28;20056;-70
2023/12/30 15:22:38;;;;;;;4.15;1.45;;;;;;;18.76;57.54;100658.31;20839870;28;20053;-67
2023/12/30 15:32:41;;;;;;;3.20;1.30;;;;;;;18.74;57.74;100650.34;20844611;28;20400;-73
2023/12/30 15:42:43;;;;;;;3.70;1.70;;;;;;;18.75;62.73;100640.44;20830201;28;20599;-70
2023/12/30 15:52:45;;;;;;;7.22;1.80;;;;;;;18.65;67.50;100635.06;20797914;28;20050;-69
2023/12/30 16:02:46;;;;;;;8.02;2.33;;;;;;;18.70;66.32;100641.75;20797223;28;20102;-69
2023/12/30 16:12:48;;;;;;;9.52;3.17;;;;;;;18.82;67.57;100641.53;20784054;28;20067;-68
2023/12/30 16:22:50;;;;;;;7.28;3.30;;;;;;;18.88;67.52;100632.84;20757375;28;20045;-70
2023/12/30 16:32:52;;;;;;;8.25;2.65;;;;;;;18.82;66.66;100625.34;20777326;28;20428;-73
2023/12/30 16:42:54;;;;;;;5.60;2.60;;;;;;;18.72;65.39;100622.69;20799332;28;20060;-68
2023/12/30 16:52:55;;;;;;;7.22;2.30;;;;;;;18.58;64.72;100610.56;20792467;28;20172;-73
2023/12/30 17:02:57;;;;;;;6.25;1.98;;;;;;;18.43;64.17;100604.81;20801665;28;20837;-69
2023/12/30 17:12:59;;;;;;;5.90;2.10;;;;;;;18.35;63.06;100586.66;20795406;28;20045;-69
2023/12/30 17:23:03;;;;;;;5.72;2.08;;;;;;;18.40;62.32;100594.31;20811985;28;20088;-70
2023/12/30 17:33:05;;;;;;;4.90;1.95;;;;;;;18.47;62.61;100573.00;20796666;28;20045;-67
2023/12/30 17:43:07;;;;;;;5.13;1.75;;;;;;;18.57;62.30;100578.34;20800534;28;20044;-67
2023/12/30 17:53:12;;;;;;;6.43;1.90;;;;;;;18.50;61.77;100578.94;20775376;28;20143;-72
2023/12/30 18:03:14;;;;;;;3.88;1.75;;;;;;;18.55;62.04;100583.88;20806442;28;20059;-70
2023/12/30 18:13:16;;;;;;;4.65;1.90;;;;;;;18.58;61.77;100556.66;20814965;28;20499;-72
2023/12/30 18:23:18;;;;;;;3.63;1.70;;;;;;;18.57;61.65;100560.34;20824317;28;20049;-70
2023/12/30 18:33:20;;;;;;;4.45;1.67;;;;;;;18.52;61.29;100555.41;20833306;28;20061;-70
2023/12/30 18:43:22;;;;;;;3.15;1.77;;;;;;;18.47;61.19;100546.03;20812861;28;20048;-70
2023/12/30 18:53:24;;;;;;;3.33;1.30;;;;;;;18.43;61.14;100550.03;20827018;28;20049;-70
2023/12/30 19:03:25;;;;;;;4.20;2.00;;;;;;;18.38;61.00;100537.03;20836173;28;20067;-70
2023/12/30 19:13:27;;;;;;;4.20;1.83;;;;;;;18.34;60.89;100520.28;20817789;28;20668;-70
2023/12/30 19:23:30;;;;;;;3.60;2.03;;;;;;;18.31;60.68;100503.56;20823269;28;20635;-70
2023/12/30 19:33:32;;;;;;;3.47;1.70;;;;;;;18.26;60.47;100483.28;20812711;28;20055;-70
2023/12/30 19:43:36;;;;;;;3.20;1.73;;;;;;;18.25;60.52;100467.28;20803193;28;20994;-70
2023/12/30 19:53:37;;;;;;;2.53;1.58;;;;;;;18.23;60.20;100458.50;20820555;28;20099;-70
2023/12/30 20:03:39;;;;;;;4.65;2.50;;;;;;;18.20;60.09;100448.03;20818592;28;20126;-70
2023/12/30 20:13:42;;;;;;;3.25;1.55;;;;;;;18.19;59.93;100439.09;20814810;28;20045;-70
2023/12/30 20:23:44;;;;;;;2.70;1.65;;;;;;;18.17;59.76;100429.47;20804773;28;20607;-70
2023/12/30 20:33:46;;;;;;;2.40;1.52;;;;;;;18.11;59.67;100412.06;20814956;28;20044;-70
2023/12/30 20:43:48;;;;;;;1.83;1.52;;;;;;;18.11;59.65;100401.28;20814355;28;20418;-70
2023/12/30 20:53:52;;;;;;;2.95;1.50;;;;;;;18.08;59.54;100386.25;20807550;28;20072;-70
2023/12/30 21:03:53;;;;;;;2.72;1.50;;;;;;;18.04;59.31;100368.69;20825853;28;20132;-70
2023/12/30 21:13:55;;;;;;;4.15;1.45;;;;;;;18.01;59.29;100373.56;20821494;28;20041;-70
2023/12/30 21:23:57;;;;;;;2.15;1.10;;;;;;;17.97;59.00;100357.66;20848015;28;20056;-70
2023/12/30 21:33:59;;;;;;;2.67;1.40;;;;;;;17.94;59.06;100344.50;20843204;28;20079;-70
2023/12/30 21:44:01;;;;;;;2.17;1.10;;;;;;;17.93;59.22;100342.81;20835693;28;20048;-70
2023/12/30 21:54:03;;;;;;;2.70;1.30;;;;;;;17.92;58.72;100332.19;20851509;28;20056;-70
2023/12/30 22:04:05;;;;;;;2.25;1.33;;;;;;;17.89;59.11;100313.63;20853855;28;20123;-70
2023/12/30 22:14:07;;;;;;;2.42;1.20;;;;;;;17.87;59.09;100305.69;20855745;28;20045;-70
2023/12/30 22:24:09;;;;;;;2.47;1.20;;;;;;;17.88;59.03;100282.31;20847320;28;20265;-70
2023/12/30 22:34:11;;;;;;;3.03;1.20;;;;;;;17.87;58.84;100280.63;20831658;28;20059;-70
2023/12/30 22:44:13;;;;;;;2.75;1.20;;;;;;;17.87;59.17;100270.69;20839448;28;20425;-70
2023/12/30 22:54:16;;;;;;;2.00;0.95;;;;;;;17.83;58.94;100248.63;20821347;28;20517;-70
2023/12/30 23:04:17;;;;;;;1.98;1.00;;;;;;;17.85;58.95;100239.53;20846314;28;20413;-70
2023/12/30 23:14:23;;;;;;;2.70;1.08;;;;;;;17.87;59.10;100234.84;20830937;28;20052;-70
2023/12/30 23:24:24;;;;;;;;;;;;;;;17.94;58.61;100211.69;20847819;28;20049;-70
2023/12/30 23:34:26;;;;;;;1.42;0.90;;;;;;;17.92;58.78;100192.16;20840468;28;19975;-70
2023/12/30 23:44:46;;;;;;;1.30;1.08;;;;;;;17.95;58.48;100183.75;20821210;28;20428;-70
2023/12/30 23:54:48;;;;;;;1.08;0.80;;;;;;;17.96;58.49;100148.59;20835885;28;20556;-70
